createdAt,value
2023-03-24T00:00:33.670Z,0.71
2023-03-24T00:01:37.155Z,1.00
2023-03-24T00:02:40.451Z,1.50
2023-03-24T00:03:43.977Z,1.00
2023-03-24T00:04:47.332Z,1.29
2023-03-24T00:05:50.532Z,2.00
2023-03-24T00:06:53.795Z,2.00
2023-03-24T00:08:01.648Z,1.29
2023-03-24T00:09:00.986Z,1.00
2023-03-24T00:10:04.190Z,1.67
2023-03-24T00:11:07.240Z,1.43
2023-03-24T00:12:10.337Z,1.50
2023-03-24T00:13:13.511Z,2.00
2023-03-24T00:14:16.813Z,1.43
2023-03-24T00:15:20.248Z,2.00
2023-03-24T00:16:23.498Z,2.43
2023-03-24T00:17:26.553Z,2.43
2023-03-24T00:18:29.540Z,1.29
2023-03-24T00:19:32.510Z,1.43
2023-03-24T00:20:35.583Z,1.57
2023-03-24T00:21:39.147Z,0.67
2023-03-24T00:22:42.487Z,1.00
2023-03-24T00:23:45.533Z,1.29
2023-03-24T00:24:49.320Z,1.43
2023-03-24T00:25:53.206Z,2.00
2023-03-24T00:26:56.220Z,1.12
2023-03-24T00:27:59.509Z,1.33
2023-03-24T00:29:02.773Z,2.43
2023-03-24T00:30:05.966Z,2.57
2023-03-24T00:31:09.045Z,1.43
2023-03-24T00:32:12.337Z,1.57
2023-03-24T00:33:15.619Z,1.86
2023-03-24T00:34:18.998Z,1.57
2023-03-24T00:35:22.078Z,2.29
2023-03-24T00:36:25.322Z,2.67
2023-03-24T00:37:28.356Z,2.00
2023-03-24T00:38:31.537Z,2.00
2023-03-24T00:39:34.596Z,1.86
2023-03-24T00:40:37.682Z,2.00
2023-03-24T00:41:40.973Z,2.00
2023-03-24T00:42:44.154Z,2.43
2023-03-24T00:43:47.322Z,1.67
2023-03-24T00:44:50.351Z,2.00
2023-03-24T00:45:53.874Z,2.00
2023-03-24T00:46:57.316Z,1.75
2023-03-24T00:48:00.989Z,1.57
2023-03-24T00:49:04.064Z,2.00
2023-03-24T00:50:07.425Z,1.67
2023-03-24T00:51:11.035Z,1.00
2023-03-24T00:52:14.155Z,0.71
2023-03-24T00:53:17.088Z,2.33
2023-03-24T00:54:20.554Z,1.71
2023-03-24T00:55:23.758Z,2.14
2023-03-24T00:56:27.062Z,1.57
2023-03-24T00:57:30.297Z,2.00
2023-03-24T00:58:33.363Z,1.67
2023-03-24T00:59:36.590Z,2.17
2023-03-24T01:00:39.773Z,2.00
2023-03-24T01:01:42.914Z,2.00
2023-03-24T01:02:46.230Z,1.14
2023-03-24T01:03:49.453Z,1.33
2023-03-24T01:04:51.964Z,1.67
2023-03-24T01:05:54.967Z,1.33
2023-03-24T01:06:58.633Z,2.00
2023-03-24T01:08:02.227Z,2.00
2023-03-24T01:09:05.666Z,2.62
2023-03-24T01:10:08.832Z,1.43
2023-03-24T01:11:12.587Z,1.57
2023-03-24T01:12:15.796Z,2.00
2023-03-24T01:13:19.186Z,2.29
2023-03-24T01:14:22.857Z,1.57
2023-03-24T01:15:26.539Z,0.50
2023-03-24T01:16:30.473Z,1.43
2023-03-24T01:17:34.047Z,2.00
2023-03-24T01:18:37.440Z,2.00
2023-03-24T01:19:40.964Z,1.57
2023-03-24T01:20:44.509Z,0.86
2023-03-24T01:21:48.092Z,2.00
2023-03-24T01:22:51.478Z,1.43
2023-03-24T01:23:54.889Z,2.00
2023-03-24T01:24:58.250Z,2.14
2023-03-24T01:26:01.442Z,2.43
2023-03-24T01:27:04.712Z,1.86
2023-03-24T01:28:07.903Z,1.14
2023-03-24T01:29:11.316Z,1.71
2023-03-24T01:30:14.670Z,2.00
2023-03-24T01:31:18.314Z,2.43
2023-03-24T01:32:21.880Z,3.00
2023-03-24T01:33:25.174Z,3.00
2023-03-24T01:34:28.520Z,2.57
2023-03-24T01:35:31.904Z,2.00
2023-03-24T01:36:35.151Z,2.00
2023-03-24T01:37:38.400Z,1.57
2023-03-24T01:38:41.970Z,2.00
2023-03-24T01:39:45.357Z,2.00
2023-03-24T01:40:48.569Z,1.87
2023-03-24T01:41:51.854Z,2.00
2023-03-24T01:42:54.928Z,2.43
2023-03-24T01:43:58.016Z,1.57
2023-03-24T01:45:01.364Z,2.00
2023-03-24T01:46:05.024Z,2.00
2023-03-24T01:47:08.397Z,2.43
2023-03-24T01:48:11.769Z,2.57
2023-03-24T01:49:15.187Z,2.00
2023-03-24T01:50:19.014Z,2.00
2023-03-24T01:51:22.518Z,1.87
2023-03-24T01:52:25.538Z,2.14
2023-03-24T01:53:28.767Z,2.43
2023-03-24T01:54:32.051Z,1.86
2023-03-24T01:55:35.339Z,1.71
2023-03-24T01:56:38.677Z,2.43
2023-03-24T01:57:41.966Z,1.83
2023-03-24T01:58:45.125Z,1.33
2023-03-24T01:59:48.289Z,2.33
2023-03-24T02:00:51.474Z,1.67
2023-03-24T02:01:54.702Z,2.00
2023-03-24T02:02:57.763Z,1.86
2023-03-24T02:04:01.057Z,2.00
2023-03-24T02:05:04.387Z,2.00
2023-03-24T02:06:07.880Z,1.57
2023-03-24T02:07:11.380Z,2.00
2023-03-24T02:08:15.377Z,2.00
2023-03-24T02:09:18.954Z,2.00
2023-03-24T02:10:22.347Z,1.43
2023-03-24T02:11:25.732Z,1.71
2023-03-24T02:12:29.325Z,1.43
2023-03-24T02:13:34.228Z,2.00
2023-03-24T02:14:36.874Z,2.00
2023-03-24T02:15:40.127Z,2.00
2023-03-24T02:16:43.457Z,2.00
2023-03-24T02:17:46.809Z,2.33
2023-03-24T02:18:50.057Z,2.43
2023-03-24T02:19:53.439Z,1.43
2023-03-24T02:20:56.928Z,2.14
2023-03-24T02:22:00.318Z,2.57
2023-03-24T02:23:03.798Z,1.57
2023-03-24T02:24:07.076Z,1.43
2023-03-24T02:25:10.371Z,1.57
2023-03-24T02:26:13.768Z,2.00
2023-03-24T02:27:16.940Z,1.14
2023-03-24T02:28:20.333Z,1.29
2023-03-24T02:29:23.717Z,2.00
2023-03-24T02:30:27.311Z,2.00
2023-03-24T02:31:30.963Z,1.50
2023-03-24T02:32:34.425Z,1.14
2023-03-24T02:33:37.873Z,1.57
2023-03-24T02:34:41.383Z,1.14
2023-03-24T02:35:44.571Z,2.00
2023-03-24T02:36:47.723Z,1.86
2023-03-24T02:37:52.722Z,2.29
2023-03-24T02:38:55.724Z,1.50
2023-03-24T02:39:59.332Z,1.29
2023-03-24T02:41:02.910Z,1.50
2023-03-24T02:42:06.296Z,1.57
2023-03-24T02:43:09.690Z,2.00
2023-03-24T02:44:12.984Z,2.29
2023-03-24T02:45:16.194Z,3.00
2023-03-24T02:46:19.639Z,2.67
2023-03-24T02:47:28.282Z,2.00
2023-03-24T02:48:31.956Z,2.12
2023-03-24T02:49:35.529Z,2.50
2023-03-24T02:50:38.812Z,1.29
2023-03-24T02:51:42.206Z,2.00
2023-03-24T02:52:45.587Z,2.00
2023-03-24T02:53:48.883Z,2.00
2023-03-24T02:54:53.505Z,2.00
2023-03-24T02:55:56.876Z,1.62
2023-03-24T02:57:00.252Z,1.14
2023-03-24T02:58:03.470Z,2.00
2023-03-24T02:59:06.838Z,2.00
2023-03-24T03:00:10.145Z,1.43
2023-03-24T03:01:13.333Z,2.00
2023-03-24T03:02:16.578Z,1.33
2023-03-24T03:03:19.881Z,1.50
2023-03-24T03:04:23.150Z,2.00
2023-03-24T03:05:26.327Z,1.57
2023-03-24T03:06:29.506Z,1.33
2023-03-24T03:07:32.796Z,1.57
2023-03-24T03:08:35.832Z,1.57
2023-03-24T03:09:39.053Z,3.00
2023-03-24T03:10:42.629Z,2.00
2023-03-24T03:11:46.647Z,1.12
2023-03-24T03:12:50.685Z,0.43
2023-03-24T03:13:54.019Z,1.50
2023-03-24T03:14:57.325Z,1.71
2023-03-24T03:16:00.687Z,1.00
2023-03-24T03:17:03.945Z,1.00
2023-03-24T03:18:07.513Z,1.57
2023-03-24T03:19:10.684Z,1.00
2023-03-24T03:20:13.886Z,1.43
2023-03-24T03:21:17.549Z,1.00
2023-03-24T03:22:21.039Z,1.25
2023-03-24T03:23:24.382Z,1.14
2023-03-24T03:24:27.778Z,0.71
2023-03-24T03:25:31.289Z,1.00
2023-03-24T03:26:37.760Z,0.88
2023-03-24T03:27:41.258Z,0.75
2023-03-24T03:28:44.931Z,1.00
2023-03-24T03:29:48.333Z,0.71
2023-03-24T03:30:52.154Z,1.00
2023-03-24T03:31:55.720Z,1.00
2023-03-24T03:32:59.228Z,1.00
2023-03-24T03:34:02.895Z,1.00
2023-03-24T03:35:06.588Z,1.43
2023-03-24T03:36:10.194Z,1.12
2023-03-24T03:37:13.774Z,1.00
2023-03-24T03:38:22.760Z,1.12
2023-03-24T03:39:26.287Z,1.50
2023-03-24T03:40:29.633Z,0.71
2023-03-24T03:41:33.054Z,0.57
2023-03-24T03:42:36.362Z,0.57
2023-03-24T03:43:39.520Z,1.00
2023-03-24T03:44:42.707Z,1.00
2023-03-24T03:45:46.325Z,0.67
2023-03-24T03:46:49.781Z,0.86
2023-03-24T03:47:53.189Z,0.57
2023-03-24T03:48:56.464Z,1.00
2023-03-24T03:49:59.835Z,0.71
2023-03-24T03:51:13.190Z,1.00
2023-03-24T03:52:07.330Z,0.13
2023-03-24T03:53:10.515Z,0.83
2023-03-24T03:54:13.965Z,1.00
2023-03-24T03:55:17.143Z,1.00
2023-03-24T03:56:20.686Z,1.00
2023-03-24T03:57:23.912Z,1.00
2023-03-24T03:58:27.754Z,1.00
2023-03-24T03:59:31.161Z,0.62
2023-03-24T04:00:34.735Z,1.00
2023-03-24T04:01:38.420Z,1.00
2023-03-24T04:02:41.906Z,1.00
2023-03-24T04:03:45.359Z,0.13
2023-03-24T04:04:56.272Z,0.43
2023-03-24T04:05:53.295Z,0.62
2023-03-24T04:06:56.592Z,1.00
2023-03-24T04:08:00.185Z,1.00
2023-03-24T04:09:03.859Z,1.00
2023-03-24T04:10:07.605Z,1.00
2023-03-24T04:11:11.157Z,0.50
2023-03-24T04:12:14.438Z,0.00
2023-03-24T04:13:19.077Z,0.50
2023-03-24T04:14:22.644Z,0.50
2023-03-24T04:15:26.142Z,0.00
2023-03-24T04:16:29.774Z,0.00
2023-03-24T04:17:33.350Z,0.00
2023-03-24T04:18:36.734Z,1.00
2023-03-24T04:19:40.316Z,1.00
2023-03-24T04:20:43.790Z,0.50
2023-03-24T04:21:47.435Z,0.00
2023-03-24T04:22:51.068Z,0.00
2023-03-24T04:23:54.457Z,0.00
2023-03-24T04:24:57.736Z,0.86
2023-03-24T04:26:00.786Z,0.00
2023-03-24T04:27:03.870Z,0.00
2023-03-24T04:28:07.597Z,0.00
2023-03-24T04:29:11.195Z,0.00
2023-03-24T04:30:16.492Z,0.43
2023-03-24T04:31:19.594Z,0.50
2023-03-24T04:32:23.118Z,0.50
2023-03-24T04:33:26.571Z,0.00
2023-03-24T04:34:30.375Z,0.00
2023-03-24T04:35:34.194Z,0.00
2023-03-24T04:36:37.532Z,0.00
2023-03-24T04:37:40.887Z,0.00
2023-03-24T04:38:44.342Z,0.00
2023-03-24T04:39:47.496Z,0.00
2023-03-24T04:40:50.907Z,0.00
2023-03-24T04:41:54.596Z,0.00
2023-03-24T04:42:58.280Z,0.00
2023-03-24T04:44:01.777Z,0.00
2023-03-24T04:45:05.471Z,0.00
2023-03-24T04:46:09.186Z,0.00
2023-03-24T04:47:12.726Z,0.00
2023-03-24T04:48:16.136Z,0.00
2023-03-24T04:49:19.841Z,0.00
2023-03-24T04:50:23.215Z,0.00
2023-03-24T04:51:26.781Z,0.00
2023-03-24T04:52:30.197Z,0.00
2023-03-24T04:53:33.898Z,0.43
2023-03-24T04:54:37.378Z,0.00
2023-03-24T04:55:40.865Z,0.00
2023-03-24T04:56:44.477Z,0.00
2023-03-24T04:57:47.656Z,0.00
2023-03-24T04:58:50.936Z,0.00
2023-03-24T04:59:54.337Z,0.00
2023-03-24T05:00:57.523Z,0.00
2023-03-24T05:02:00.758Z,0.00
2023-03-24T05:03:04.333Z,0.00
2023-03-24T05:04:07.806Z,0.00
2023-03-24T05:05:11.061Z,0.00
2023-03-24T05:06:14.434Z,0.00
2023-03-24T05:07:17.886Z,0.00
2023-03-24T05:08:21.407Z,0.00
2023-03-24T05:09:24.685Z,0.00
2023-03-24T05:10:28.385Z,0.00
2023-03-24T05:11:31.976Z,0.13
2023-03-24T05:12:35.584Z,0.00
2023-03-24T05:13:39.268Z,0.00
2023-03-24T05:14:43.777Z,0.25
2023-03-24T05:15:47.407Z,0.57
2023-03-24T05:16:50.970Z,0.57
2023-03-24T05:17:54.819Z,0.43
2023-03-24T05:18:58.238Z,0.88
2023-03-24T05:20:03.350Z,1.00
2023-03-24T05:21:06.968Z,0.13
2023-03-24T05:22:10.445Z,0.00
2023-03-24T05:23:13.843Z,0.00
2023-03-24T05:24:17.529Z,0.00
2023-03-24T05:25:21.352Z,0.00
2023-03-24T05:26:24.775Z,0.00
2023-03-24T05:27:28.201Z,0.00
2023-03-24T05:28:31.931Z,0.00
2023-03-24T05:29:35.508Z,0.00
2023-03-24T05:30:39.078Z,0.00
2023-03-24T05:31:42.463Z,0.00
2023-03-24T05:32:47.422Z,0.00
2023-03-24T05:33:51.597Z,0.00
2023-03-24T05:34:55.408Z,0.00
2023-03-24T05:36:02.324Z,0.00
2023-03-24T05:37:05.955Z,0.50
2023-03-24T05:38:09.955Z,0.50
2023-03-24T05:39:13.464Z,0.00
2023-03-24T05:40:17.049Z,0.00
2023-03-24T05:41:20.844Z,0.00
2023-03-24T05:42:24.424Z,0.00
2023-03-24T05:43:29.678Z,0.37
2023-03-24T05:44:32.832Z,0.50
2023-03-24T05:45:36.113Z,0.71
2023-03-24T05:46:39.373Z,0.00
2023-03-24T05:47:42.702Z,0.43
2023-03-24T05:48:46.190Z,0.50
2023-03-24T05:49:49.552Z,0.29
2023-03-24T05:50:52.839Z,0.29
2023-03-24T05:51:56.229Z,0.43
2023-03-24T05:52:59.609Z,0.00
2023-03-24T05:54:02.888Z,0.00
2023-03-24T05:55:06.078Z,0.00
2023-03-24T05:56:09.143Z,0.29
2023-03-24T05:57:17.856Z,0.00
2023-03-24T05:58:21.168Z,0.00
2023-03-24T05:59:24.508Z,0.00
2023-03-24T06:00:27.833Z,0.00
2023-03-24T06:01:30.982Z,0.00
2023-03-24T06:02:34.251Z,0.14
2023-03-24T06:03:41.972Z,0.57
2023-03-24T06:04:45.367Z,0.00
2023-03-24T06:05:48.531Z,0.43
2023-03-24T06:06:52.148Z,0.43
2023-03-24T06:07:55.528Z,0.00
2023-03-24T06:09:00.454Z,0.00
2023-03-24T06:10:03.837Z,0.00
2023-03-24T06:11:08.669Z,0.00
2023-03-24T06:12:11.739Z,0.13
2023-03-24T06:13:15.196Z,1.00
2023-03-24T06:14:18.712Z,0.43
2023-03-24T06:15:22.176Z,0.00
2023-03-24T06:16:27.193Z,0.43
2023-03-24T06:17:30.876Z,0.50
2023-03-24T06:18:34.402Z,0.00
2023-03-24T06:19:37.795Z,0.00
2023-03-24T06:20:41.510Z,0.00
2023-03-24T06:21:45.396Z,0.00
2023-03-24T06:22:48.987Z,0.00
2023-03-24T06:23:52.466Z,0.00
2023-03-24T06:24:55.840Z,0.00
2023-03-24T06:25:59.519Z,0.00
2023-03-24T06:27:03.037Z,0.00
2023-03-24T06:28:06.457Z,0.00
2023-03-24T06:29:09.809Z,0.00
2023-03-24T06:30:13.404Z,0.00
2023-03-24T06:31:20.086Z,0.00
2023-03-24T06:32:23.557Z,0.00
2023-03-24T06:33:28.178Z,0.00
2023-03-24T06:34:32.202Z,0.50
2023-03-24T06:35:35.781Z,1.50
2023-03-24T06:36:39.050Z,0.57
2023-03-24T06:37:42.450Z,0.71
2023-03-24T06:38:46.029Z,0.57
2023-03-24T06:39:49.415Z,0.57
2023-03-24T06:40:52.901Z,0.71
2023-03-24T06:41:56.295Z,0.00
2023-03-24T06:42:59.878Z,0.43
2023-03-24T06:44:03.390Z,0.00
2023-03-24T06:45:06.930Z,0.00
2023-03-24T06:46:11.625Z,0.00
2023-03-24T06:47:14.982Z,0.57
2023-03-24T06:48:18.555Z,0.00
2023-03-24T06:49:21.843Z,0.43
2023-03-24T06:50:25.327Z,1.00
2023-03-24T06:51:28.717Z,0.57
2023-03-24T06:52:32.082Z,0.00
2023-03-24T06:53:35.592Z,0.71
2023-03-24T06:54:39.694Z,1.00
2023-03-24T06:55:43.813Z,0.37
2023-03-24T06:56:48.467Z,1.00
2023-03-24T06:57:51.800Z,0.13
2023-03-24T06:58:55.197Z,0.57
2023-03-24T06:59:58.374Z,0.00
2023-03-24T07:01:01.552Z,0.00
2023-03-24T07:02:05.110Z,0.00
2023-03-24T07:03:08.709Z,0.43
2023-03-24T07:04:12.120Z,0.29
2023-03-24T07:05:15.611Z,0.00
2023-03-24T07:06:19.034Z,0.43
2023-03-24T07:08:06.054Z,0.57
2023-03-24T07:08:37.174Z,0.00
2023-03-24T07:09:31.512Z,0.75
2023-03-24T07:10:35.099Z,0.37
2023-03-24T07:11:38.693Z,0.57
2023-03-24T07:12:42.195Z,0.86
2023-03-24T07:13:45.667Z,1.00
2023-03-24T07:14:49.072Z,1.43
2023-03-24T07:15:52.664Z,1.29
2023-03-24T07:16:56.139Z,0.43
2023-03-24T07:17:59.802Z,0.71
2023-03-24T07:19:03.221Z,1.00
2023-03-24T07:20:06.911Z,1.00
2023-03-24T07:21:10.179Z,1.00
2023-03-24T07:22:13.687Z,0.86
2023-03-24T07:23:17.176Z,1.43
2023-03-24T07:24:20.665Z,1.71
2023-03-24T07:25:26.133Z,1.57
2023-03-24T07:26:29.586Z,1.87
2023-03-24T07:27:33.070Z,1.50
2023-03-24T07:28:36.566Z,1.00
2023-03-24T07:29:39.967Z,0.57
2023-03-24T07:30:43.546Z,0.00
2023-03-24T07:31:47.257Z,0.43
2023-03-24T07:32:50.740Z,0.13
2023-03-24T07:33:54.129Z,1.14
2023-03-24T07:34:57.602Z,1.57
2023-03-24T07:36:00.922Z,1.00
2023-03-24T07:37:04.478Z,1.57
2023-03-24T07:38:07.975Z,1.43
2023-03-24T07:39:12.835Z,2.43
2023-03-24T07:40:16.271Z,1.12
2023-03-24T07:41:19.773Z,1.29
2023-03-24T07:42:23.366Z,1.00
2023-03-24T07:43:26.953Z,1.29
2023-03-24T07:44:30.336Z,2.12
2023-03-24T07:45:33.851Z,1.86
2023-03-24T07:46:37.382Z,2.14
2023-03-24T07:47:40.742Z,2.00
2023-03-24T07:48:50.947Z,2.00
2023-03-24T07:49:54.028Z,2.00
2023-03-24T07:50:57.219Z,1.86
2023-03-24T07:52:00.496Z,1.57
2023-03-24T07:53:03.834Z,2.00
2023-03-24T07:54:07.068Z,1.86
2023-03-24T07:55:11.963Z,2.43
2023-03-24T07:56:14.758Z,3.00
2023-03-24T07:57:17.869Z,2.67
2023-03-24T07:58:21.020Z,2.17
2023-03-24T07:59:25.937Z,1.14
2023-03-24T08:00:28.426Z,1.75
2023-03-24T08:01:31.460Z,2.00
2023-03-24T08:02:34.803Z,2.57
2023-03-24T08:03:40.183Z,2.71
2023-03-24T08:04:43.607Z,3.00
2023-03-24T08:05:47.081Z,2.57
2023-03-24T08:06:50.348Z,2.50
2023-03-24T08:07:53.750Z,2.33
2023-03-24T08:08:57.857Z,1.75
2023-03-24T08:10:01.039Z,0.67
2023-03-24T08:11:04.155Z,0.00
2023-03-24T08:12:17.506Z,1.50
2023-03-24T08:13:11.706Z,1.25
2023-03-24T08:14:14.791Z,0.83
2023-03-24T08:15:17.863Z,1.17
2023-03-24T08:16:21.270Z,1.83
2023-03-24T08:17:24.659Z,2.43
2023-03-24T08:18:28.255Z,2.71
2023-03-24T08:19:31.826Z,3.43
2023-03-24T08:20:35.021Z,4.43
2023-03-24T08:21:38.427Z,5.33
2023-03-24T08:22:41.741Z,4.25
2023-03-24T08:23:45.277Z,4.86
2023-03-24T08:24:48.655Z,4.86
2023-03-24T08:25:52.246Z,4.00
2023-03-24T08:27:06.589Z,3.57
2023-03-24T08:28:09.733Z,4.12
2023-03-24T08:29:12.707Z,4.43
2023-03-24T08:30:15.727Z,4.86
2023-03-24T08:31:18.930Z,4.33
2023-03-24T08:32:22.136Z,2.14
2023-03-24T08:33:25.386Z,2.00
2023-03-24T08:34:35.026Z,2.00
2023-03-24T08:35:38.918Z,2.50
2023-03-24T08:36:42.496Z,1.50
2023-03-24T08:37:45.702Z,2.43
2023-03-24T08:38:49.375Z,2.71
2023-03-24T08:39:52.843Z,2.43
2023-03-24T08:40:56.166Z,2.86
2023-03-24T08:41:59.642Z,1.43
2023-03-24T08:43:03.034Z,1.57
2023-03-24T08:44:07.231Z,2.86
2023-03-24T08:45:10.815Z,3.25
2023-03-24T08:46:14.366Z,4.00
2023-03-24T08:47:17.705Z,4.57
2023-03-24T08:48:21.082Z,3.29
2023-03-24T08:49:24.445Z,2.00
2023-03-24T08:50:27.865Z,2.00
2023-03-24T08:51:31.364Z,2.43
2023-03-24T08:52:34.936Z,3.00
2023-03-24T08:53:38.428Z,3.00
2023-03-24T08:54:41.808Z,3.14
2023-03-24T08:55:46.186Z,3.00
2023-03-24T08:56:50.040Z,4.00
2023-03-24T08:57:55.333Z,4.71
2023-03-24T08:58:58.631Z,4.50
2023-03-24T09:00:01.828Z,4.00
2023-03-24T09:01:05.185Z,3.17
2023-03-24T09:02:08.620Z,4.14
2023-03-24T09:03:12.043Z,3.57
2023-03-24T09:04:15.518Z,3.43
2023-03-24T09:05:21.194Z,4.71
2023-03-24T09:06:23.371Z,7.00
2023-03-24T09:07:27.773Z,7.57
2023-03-24T09:08:31.052Z,6.62
2023-03-24T09:09:34.556Z,4.14
2023-03-24T09:10:38.029Z,3.00
2023-03-24T09:11:43.691Z,2.43
2023-03-24T09:12:47.167Z,2.87
2023-03-24T09:13:50.649Z,3.00
2023-03-24T09:14:54.141Z,3.43
2023-03-24T09:15:57.558Z,3.14
2023-03-24T09:17:04.559Z,2.00
2023-03-24T09:18:09.008Z,2.75
2023-03-24T09:19:12.599Z,3.00
2023-03-24T09:20:15.972Z,2.62
2023-03-24T09:21:19.376Z,3.00
2023-03-24T09:22:22.870Z,2.00
2023-03-24T09:23:26.251Z,1.71
2023-03-24T09:24:29.643Z,1.14
2023-03-24T09:25:32.823Z,1.14
2023-03-24T09:26:37.228Z,1.33
2023-03-24T09:27:40.516Z,2.00
2023-03-24T09:28:47.405Z,2.29
2023-03-24T09:29:50.673Z,1.50
2023-03-24T09:30:53.856Z,1.29
2023-03-24T09:31:57.130Z,2.00
2023-03-24T09:33:00.346Z,1.14
2023-03-24T09:34:04.211Z,1.00
2023-03-24T09:35:07.609Z,1.12
2023-03-24T09:36:15.215Z,1.57
2023-03-24T09:37:24.212Z,1.50
2023-03-24T09:38:27.689Z,1.12
2023-03-24T09:39:30.970Z,0.86
2023-03-24T09:40:34.057Z,0.43
2023-03-24T09:41:37.346Z,0.57
2023-03-24T09:42:40.416Z,0.43
2023-03-24T09:43:43.506Z,1.86
2023-03-24T09:44:47.759Z,2.57
2023-03-24T09:45:51.223Z,1.00
2023-03-24T09:46:54.533Z,0.71
2023-03-24T09:47:57.728Z,1.43
2023-03-24T09:49:01.908Z,1.14
2023-03-24T09:50:05.150Z,0.25
2023-03-24T09:51:08.544Z,0.86
2023-03-24T09:52:12.027Z,0.43
2023-03-24T09:53:15.514Z,0.71
2023-03-24T09:54:18.809Z,0.00
2023-03-24T09:55:22.183Z,0.43
2023-03-24T09:56:25.912Z,0.43
2023-03-24T09:57:31.149Z,1.43
2023-03-24T09:58:34.606Z,0.62
2023-03-24T09:59:37.898Z,0.71
2023-03-24T10:00:41.337Z,1.43
2023-03-24T10:01:45.788Z,1.75
2023-03-24T10:02:51.069Z,3.00
2023-03-24T10:03:53.875Z,3.25
2023-03-24T10:04:57.340Z,2.29
2023-03-24T10:06:00.665Z,2.14
2023-03-24T10:07:04.048Z,1.50
2023-03-24T10:08:07.433Z,1.00
2023-03-24T10:09:10.825Z,0.57
2023-03-24T10:10:16.084Z,0.00
2023-03-24T10:11:19.545Z,0.00
2023-03-24T10:12:23.030Z,0.00
2023-03-24T10:13:26.418Z,0.00
2023-03-24T10:14:29.607Z,0.00
2023-03-24T10:15:37.694Z,0.00
2023-03-24T10:16:38.573Z,0.00
2023-03-24T10:17:41.959Z,0.00
2023-03-24T10:18:45.487Z,0.00
2023-03-24T10:19:59.279Z,0.00
2023-03-24T10:21:00.395Z,0.00
2023-03-24T10:22:09.570Z,0.00
2023-03-24T10:23:12.559Z,0.00
2023-03-24T10:24:15.761Z,0.00
2023-03-24T10:25:19.249Z,0.00
2023-03-24T10:26:22.619Z,0.00
2023-03-24T10:27:26.005Z,0.00
2023-03-24T10:28:29.290Z,0.00
2023-03-24T10:29:32.798Z,0.00
2023-03-24T10:30:36.167Z,0.00
2023-03-24T10:31:39.686Z,0.00
2023-03-24T10:32:43.111Z,0.00
2023-03-24T10:33:46.637Z,0.00
2023-03-24T10:34:49.921Z,0.29
2023-03-24T10:35:53.466Z,0.57
2023-03-24T10:36:58.301Z,0.00
2023-03-24T10:38:01.319Z,0.00
2023-03-24T10:39:16.565Z,0.00
2023-03-24T10:40:10.416Z,0.00
2023-03-24T10:41:13.520Z,0.00
2023-03-24T10:42:16.566Z,0.00
2023-03-24T10:43:19.781Z,0.00
2023-03-24T10:44:23.113Z,0.00
2023-03-24T10:45:29.564Z,0.00
2023-03-24T10:46:32.766Z,0.00
2023-03-24T10:47:35.954Z,0.00
2023-03-24T10:48:38.918Z,0.00
2023-03-24T10:49:42.253Z,0.00
2023-03-24T10:50:45.455Z,0.00
2023-03-24T10:51:48.717Z,0.00
2023-03-24T10:52:51.794Z,0.00
2023-03-24T10:53:54.880Z,0.00
2023-03-24T10:54:58.060Z,0.00
2023-03-24T10:56:01.143Z,0.00
2023-03-24T10:57:04.622Z,0.00
2023-03-24T10:58:07.602Z,0.00
2023-03-24T10:59:10.890Z,0.00
2023-03-24T11:00:14.071Z,0.00
2023-03-24T11:01:17.182Z,0.00
2023-03-24T11:02:20.565Z,0.00
2023-03-24T11:03:23.783Z,0.00
2023-03-24T11:04:27.003Z,0.00
2023-03-24T11:05:30.195Z,0.00
2023-03-24T11:06:35.014Z,0.00
2023-03-24T11:07:41.268Z,0.00
2023-03-24T11:08:45.051Z,0.00
2023-03-24T11:09:48.752Z,0.00
2023-03-24T11:10:52.236Z,0.00
2023-03-24T11:11:55.528Z,0.00
2023-03-24T11:13:02.096Z,0.00
2023-03-24T11:14:05.473Z,0.00
2023-03-24T11:15:19.611Z,0.00
2023-03-24T11:16:15.252Z,0.00
2023-03-24T11:17:18.593Z,0.00
2023-03-24T11:18:21.785Z,0.00
2023-03-24T11:19:27.160Z,0.00
2023-03-24T11:20:30.368Z,0.00
2023-03-24T11:21:33.537Z,0.43
2023-03-24T11:22:36.960Z,0.29
2023-03-24T11:23:40.444Z,0.00
2023-03-24T11:24:43.754Z,0.00
2023-03-24T11:25:47.238Z,0.00
2023-03-24T11:26:51.793Z,0.00
2023-03-24T11:27:54.995Z,0.00
2023-03-24T11:28:58.336Z,0.00
2023-03-24T11:30:01.790Z,0.00
2023-03-24T11:31:06.317Z,0.14
2023-03-24T11:32:09.791Z,0.00
2023-03-24T11:33:13.858Z,0.00
2023-03-24T11:34:17.194Z,0.00
2023-03-24T11:35:20.597Z,0.00
2023-03-24T11:36:24.731Z,0.00
2023-03-24T11:37:28.033Z,0.00
2023-03-24T11:38:31.155Z,0.00
2023-03-24T11:39:34.728Z,0.00
2023-03-24T11:40:37.945Z,0.00
2023-03-24T11:41:41.093Z,0.00
2023-03-24T11:42:45.891Z,0.00
2023-03-24T11:43:48.487Z,0.00
2023-03-24T11:44:51.766Z,0.00
2023-03-24T11:45:54.971Z,0.00
2023-03-24T11:46:58.349Z,0.00
2023-03-24T11:48:01.589Z,0.00
2023-03-24T11:49:04.809Z,0.00
2023-03-24T11:50:08.008Z,0.00
2023-03-24T11:51:11.164Z,0.00
2023-03-24T11:52:14.242Z,0.00
2023-03-24T11:53:17.327Z,0.00
2023-03-24T11:54:21.613Z,0.00
2023-03-24T11:55:24.721Z,0.00
2023-03-24T11:56:27.825Z,0.00
2023-03-24T11:57:31.084Z,0.00
2023-03-24T11:58:34.210Z,0.00
2023-03-24T11:59:37.437Z,0.00
2023-03-24T12:00:40.413Z,0.00
2023-03-24T12:01:45.629Z,0.00
2023-03-24T12:02:48.830Z,0.00
2023-03-24T12:03:52.004Z,0.00
2023-03-24T12:04:55.191Z,0.00
2023-03-24T12:05:58.435Z,0.00
2023-03-24T12:07:01.565Z,0.00
2023-03-24T12:08:04.736Z,0.00
2023-03-24T12:09:09.649Z,0.00
2023-03-24T12:10:12.613Z,0.00
2023-03-24T12:11:19.248Z,0.00
2023-03-24T12:12:21.340Z,0.00
2023-03-24T12:13:32.197Z,0.00
2023-03-24T12:14:28.558Z,0.00
2023-03-24T12:15:31.729Z,0.00
2023-03-24T12:16:34.939Z,0.00
2023-03-24T12:17:38.006Z,0.00
2023-03-24T12:18:41.004Z,0.00
2023-03-24T12:19:44.166Z,0.00
2023-03-24T12:20:47.337Z,0.00
2023-03-24T12:21:50.297Z,0.00
2023-03-24T12:22:53.393Z,0.00
2023-03-24T12:23:56.563Z,0.00
2023-03-24T12:24:59.759Z,0.00
2023-03-24T12:26:03.035Z,0.00
2023-03-24T12:27:06.719Z,0.00
2023-03-24T12:28:10.017Z,0.00
2023-03-24T12:29:13.400Z,0.00
2023-03-24T12:30:16.538Z,0.00
2023-03-24T12:31:19.904Z,0.00
2023-03-24T12:32:23.074Z,0.00
2023-03-24T12:33:26.432Z,0.00
2023-03-24T12:34:29.716Z,0.00
2023-03-24T12:35:33.022Z,0.00
2023-03-24T12:36:36.386Z,0.00
2023-03-24T12:37:39.457Z,0.00
2023-03-24T12:38:42.849Z,0.00
2023-03-24T12:39:46.360Z,0.00
2023-03-24T12:40:49.516Z,0.00
2023-03-24T12:41:52.719Z,0.00
2023-03-24T12:42:55.991Z,0.00
2023-03-24T12:43:59.166Z,0.00
2023-03-24T12:45:04.214Z,0.00
2023-03-24T12:46:07.729Z,0.00
2023-03-24T12:47:11.074Z,0.00
2023-03-24T12:48:14.417Z,0.00
2023-03-24T12:49:17.850Z,0.00
2023-03-24T12:50:21.026Z,0.00
2023-03-24T12:51:29.912Z,0.00
2023-03-24T12:52:32.934Z,0.00
2023-03-24T12:53:35.996Z,0.00
2023-03-24T12:54:39.493Z,0.00
2023-03-24T12:55:42.458Z,0.00
2023-03-24T12:56:45.582Z,0.00
2023-03-24T12:57:48.831Z,0.00
2023-03-24T12:58:52.011Z,0.00
2023-03-24T12:59:55.040Z,0.00
2023-03-24T13:00:58.113Z,0.00
2023-03-24T13:02:04.469Z,0.00
2023-03-24T13:03:07.697Z,0.00
2023-03-24T13:04:10.785Z,0.00
2023-03-24T13:05:15.559Z,0.00
2023-03-24T13:06:18.205Z,0.00
2023-03-24T13:07:21.251Z,0.00
2023-03-24T13:08:24.434Z,0.00
2023-03-24T13:09:27.516Z,0.00
2023-03-24T13:10:30.611Z,0.00
2023-03-24T13:11:34.926Z,0.00
2023-03-24T13:12:38.189Z,0.00
2023-03-24T13:13:41.272Z,0.00
2023-03-24T13:14:45.978Z,0.00
2023-03-24T13:15:49.298Z,0.00
2023-03-24T13:16:52.567Z,0.00
2023-03-24T13:17:55.613Z,0.00
2023-03-24T13:18:58.717Z,0.00
2023-03-24T13:20:02.009Z,0.00
2023-03-24T13:21:06.414Z,0.00
2023-03-24T13:23:18.211Z,0.00
2023-03-24T13:24:21.402Z,0.00
2023-03-24T13:25:24.390Z,0.00
2023-03-24T13:26:27.439Z,0.00
2023-03-24T13:27:30.519Z,0.00
2023-03-24T13:28:33.696Z,0.00
2023-03-24T13:29:47.954Z,0.00
2023-03-24T13:30:41.000Z,0.00
2023-03-24T13:31:44.279Z,0.00
2023-03-24T13:32:47.364Z,0.00
2023-03-24T13:33:50.196Z,0.00
2023-03-24T13:34:53.420Z,0.00
2023-03-24T13:35:56.793Z,0.00
2023-03-24T13:37:00.296Z,0.00
2023-03-24T13:38:04.664Z,0.00
2023-03-24T13:39:13.502Z,0.00
2023-03-24T13:40:16.578Z,0.00
2023-03-24T13:41:19.666Z,0.00
2023-03-24T13:42:22.731Z,0.00
2023-03-24T13:43:25.819Z,0.00
2023-03-24T13:44:28.857Z,0.00
2023-03-24T13:45:32.079Z,0.00
2023-03-24T13:46:35.215Z,0.00
2023-03-24T13:47:38.587Z,0.00
2023-03-24T13:48:41.654Z,0.00
2023-03-24T13:49:44.812Z,0.00
2023-03-24T13:50:50.757Z,0.00
2023-03-24T13:51:53.955Z,0.00
2023-03-24T13:52:56.943Z,0.00
2023-03-24T13:54:00.002Z,0.00
2023-03-24T13:55:03.047Z,0.00
2023-03-24T13:56:06.023Z,0.00
2023-03-24T13:57:09.234Z,0.00
2023-03-24T13:58:12.168Z,0.00
2023-03-24T13:59:15.192Z,0.00
2023-03-24T14:00:18.472Z,0.00
2023-03-24T14:01:21.699Z,0.00
2023-03-24T14:02:24.943Z,0.00
2023-03-24T14:03:28.318Z,0.00
2023-03-24T14:04:32.119Z,0.00
2023-03-24T14:05:35.409Z,0.00
2023-03-24T14:06:38.486Z,0.00
2023-03-24T14:07:43.297Z,0.00